Hertfordshire — ZDJS5 — position and weather

sailwx.info

Track history (hours):
 
Tides and Currents Weather Stations Pressure Air Temp Water Temp Dewpoint Dewpoint Depression Visibility Wind Speed Wind Dir Waves Ship Positions

Hertfordshire

Last reported at 2015-May-29 19:33 UTC. Time now 2015-May-29 20:15 UTC.
Position N 53°38' E 000°29'.

Length 83 m; draft 4.8 m.

Type: Cargo ship. MMSI: 236563000.

Date/timePositionNaut miles runAvg speedWind from/ knotsBaromVisibWave heightAir tempDewpointWater temp
2015-May-29 19:33N 53°38' E 000°29'40 9.2
2015-May-29 15:10N 53°04' E 001°04'5 7.9
2015-May-29 14:33N 53°01' E 001°11'8 8.1
2015-May-29 13:33N 52°57' E 001°22'1010.1
2015-May-29 12:33N 52°50' E 001°35'1111.3
2015-May-29 11:33N 52°42' E 001°48'1111.4
2015-May-29 10:33N 52°34' E 002°01'61 9.6
2015-May-29 04:13N 51°48' E 003°08'6 9.6
2015-May-29 03:33N 51°44' E 003°15'10 9.6
2015-May-29 02:33N 51°36' E 003°23'1010.5
2015-May-29 01:34N 51°27' E 003°32'7 7.4
2015-May-29 00:33N 51°24' E 003°43'5 5.3
2015-May-28 23:33N 51°20' E 003°49'4 3.7
2015-May-28 22:31N 51°16' E 003°51'0 0.0
2015-May-28 20:15N 51°16' E 003°51'0 0.0
2015-May-28 19:33N 51°16' E 003°51'0 0.0
2015-May-28 18:33N 51°16' E 003°51'0 0.0
2015-May-28 17:09N 51°16' E 003°51'0 0.0
2015-May-28 16:27N 51°16' E 003°51'0 0.0
2015-May-28 15:20N 51°16' E 003°51'0 0.0
2015-May-28 14:08N 51°16' E 003°51'0 0.0
2015-May-28 12:29N 51°16' E 003°51'0 0.0
2015-May-28 10:27N 51°16' E 003°51'0 0.0
2015-May-28 07:28N 51°16' E 003°51'2 1.9
2015-May-28 06:34N 51°18' E 003°50'1 1.0
2015-May-28 05:25N 51°19' E 003°49'0 0.0
2015-May-28 04:28N 51°19' E 003°49'0 0.0
2015-May-28 03:28N 51°19' E 003°49'0 0.0
2015-May-28 02:31N 51°19' E 003°49'0 0.0
2015-May-28 01:31N 51°19' E 003°49'0 0.0
2015-May-28 00:29N 51°19' E 003°49'0 0.0
2015-May-27 23:28N 51°19' E 003°49'0 0.0
2015-May-27 22:28N 51°19' E 003°49'0 0.0
2015-May-27 21:31N 51°19' E 003°49'0 0.0
2015-May-27 20:19N 51°19' E 003°49'0 0.0
2015-May-27 19:31N 51°19' E 003°49'0 0.0
2015-May-27 18:31N 51°19' E 003°49'0 0.0
2015-May-27 17:25N 51°19' E 003°49'0 0.0
2015-May-27 16:33N 51°19' E 003°49'1 1.4
2015-May-27 15:33N 51°20' E 003°49'5 4.9
2015-May-27 14:33N 51°23' E 003°42'9 9.5
2015-May-27 13:34N 51°29' E 003°30'78 8.5
2015-May-27 04:26N 52°28' E 002°07'1112.0
2015-May-27 03:33N 52°37' E 002°01'1212.0
2015-May-27 02:34N 52°46' E 001°48'1212.3
2015-May-27 01:34N 52°53' E 001°31'1212.2
2015-May-27 00:34N 52°59' E 001°14'3611.0
2015-May-26 21:17N 53°24' E 000°29'811.0
2015-May-26 20:33N 53°30' E 000°20'10 9.8
2015-May-26 19:34N 53°34' E 000°05'1010.3
2015-May-26 18:33N 53°38' W 000°11'1 0.6
2015-May-26 17:32N 53°38' W 000°11'0 0.0
2015-May-26 16:32N 53°38' W 000°11'0 0.0
2015-May-26 15:32N 53°38' W 000°11'0 0.0
2015-May-26 14:32N 53°38' W 000°11'0 0.0
2015-May-26 13:29N 53°38' W 000°11'0 0.0
2015-May-26 12:32N 53°38' W 000°11'0 0.0
2015-May-26 11:32N 53°38' W 000°11'0 0.0
2015-May-26 10:32N 53°38' W 000°11'0 0.0
2015-May-26 09:32N 53°38' W 000°11'0 0.0
2015-May-26 08:32N 53°38' W 000°11'0 0.0
2015-May-26 07:32N 53°38' W 000°11'0 0.0
2015-May-26 06:32N 53°38' W 000°11'0 0.0
2015-May-26 05:32N 53°38' W 000°11'0 0.0
2015-May-26 04:32N 53°38' W 000°11'0 0.0
2015-May-26 03:32N 53°38' W 000°11'0 0.0
2015-May-26 02:32N 53°38' W 000°11'0 0.0
2015-May-26 01:31N 53°38' W 000°11'0 0.0
2015-May-26 00:32N 53°38' W 000°11'0 0.0
2015-May-25 23:32N 53°38' W 000°11'0 0.0
2015-May-25 22:31N 53°38' W 000°11'0 0.0
2015-May-25 21:34N 53°38' W 000°11'1 0.8
2015-May-25 20:33N 53°38' W 000°11'1010.0
2015-May-25 19:33N 53°34' E 000°05'9 8.9
2015-May-25 18:33N 53°31' E 000°19'6 5.9
2015-May-25 17:33N 53°28' E 000°27'34 6.7
2015-May-25 12:30N 53°03' E 001°06'7 7.6
2015-May-25 11:33N 52°59' E 001°16'7 7.5
2015-May-25 10:33N 52°55' E 001°26'8 8.4
2015-May-25 09:33N 52°50' E 001°37'10 9.8
2015-May-25 08:33N 52°42' E 001°47'1111.0
2015-May-25 07:33N 52°33' E 001°57'1210.8
2015-May-25 06:29N 52°23' E 002°07'40 9.5
2015-May-25 02:20N 51°51' E 002°45'8 9.6
2015-May-25 01:32N 51°47' E 002°56'1010.0
2015-May-25 00:30N 51°44' E 003°12'8 8.2
2015-May-24 23:33N 51°38' E 003°20'10 9.9
2015-May-24 22:33N 51°30' E 003°28'10 9.9
2015-May-24 21:33N 51°25' E 003°42'9 8.7
2015-May-24 20:33N 51°27' E 003°56'10 9.7
2015-May-24 19:33N 51°23' E 004°10'5 4.9
2015-May-24 18:33N 51°21' E 004°17'0 0.0
2015-May-24 17:31N 51°21' E 004°17'1 0.9
2015-May-24 16:33N 51°22' E 004°17'0 0.0
2015-May-24 15:33N 51°22' E 004°17'0 0.0
2015-May-24 14:30N 51°22' E 004°17'0 0.0
2015-May-24 13:33N 51°22' E 004°17'0 0.0
2015-May-24 12:30N 51°22' E 004°17'0 0.0
2015-May-24 09:26N 51°22' E 004°17'0 0.0
2015-May-24 08:26N 51°22' E 004°17'0 0.0
2015-May-24 07:26N 51°22' E 004°17'0 0.0
2015-May-24 06:17N 51°22' E 004°17'0 0.0
2015-May-24 05:29N 51°22' E 004°17'0 0.1
2015-May-24 04:21N 51°22' E 004°17'0 0.4
2015-May-24 03:23N 51°21' E 004°17'0 0.0
2015-May-24 02:32N 51°21' E 004°17'0 0.0
2015-May-24 01:32N 51°21' E 004°17'0 0.0
2015-May-24 00:29N 51°21' E 004°17'0 0.0
2015-May-23 23:26N 51°21' E 004°18'0 0.0
2015-May-23 22:32N 51°21' E 004°17'1 0.6
2015-May-23 21:25N 51°21' E 004°17'0 0.4
2015-May-23 20:33N 51°21' E 004°16'7 6.8
2015-May-23 19:34N 51°22' E 004°06'6 5.6
2015-May-23 18:34N 51°23' E 003°57'9 8.5
2015-May-23 17:34N 51°23' E 003°44'1010.2
2015-May-23 16:33N 51°29' E 003°30'1010.3
2015-May-23 15:33N 51°37' E 003°22'1010.1
2015-May-23 14:33N 51°45' E 003°11'14 9.9
2015-May-23 13:06N 51°50' E 002°50'610.6
2015-May-23 12:33N 51°55' E 002°44'1410.8
2015-May-23 11:16N 52°06' E 002°31'810.9
2015-May-23 10:30N 52°12' E 002°22'1111.0
2015-May-23 09:29N 52°21' E 002°12'1010.5
2015-May-23 08:34N 52°29' E 002°02'10 9.7
2015-May-23 07:34N 52°37' E 001°52'9 8.8
2015-May-23 06:33N 52°45' E 001°47'8 8.1
2015-May-23 05:33N 52°51' E 001°38'8 8.1
2015-May-23 04:33N 52°55' E 001°27'8 8.4
2015-May-23 03:33N 52°59' E 001°14'40 9.2
2015-May-22 23:10N 53°31' E 000°33'610.2
2015-May-22 22:33N 53°37' E 000°30'1110.7
2015-May-22 21:33N 53°46' E 000°21'1111.4
2015-May-22 20:34N 53°57' E 000°12'1212.2
2015-May-22 19:33N 54°07' E 000°03'1312.6
2015-May-22 18:34N 54°17' W 000°11'1212.5
2015-May-22 17:33N 54°27' W 000°24'1212.0
2015-May-22 16:33N 54°37' W 000°37'1111.0
2015-May-22 15:31N 54°45' W 000°49'1010.7
2015-May-22 14:34N 54°53' W 001°00'1010.3
2015-May-22 13:33N 55°02' W 001°11'  
2015-May-20 07:33N 55°06' W 001°16'10 9.1
2015-May-20 06:27N 54°57' W 001°08'8 8.9
2015-May-20 05:34N 54°51' W 000°59'8 8.4
2015-May-20 04:33N 54°45' W 000°50'8 8.2
2015-May-20 03:33N 54°38' W 000°40'8 8.3
2015-May-20 02:33N 54°32' W 000°31'9 8.9
2015-May-20 01:33N 54°25' W 000°22'10 9.7
2015-May-20 00:33N 54°18' W 000°12'1110.9
2015-May-19 23:33N 54°09' E 000°00'1111.3
2015-May-19 22:33N 53°60' E 000°10'1111.1
2015-May-19 21:34N 53°50' E 000°19'1110.9
2015-May-19 20:33N 53°40' E 000°28'  
Track history (hours):
 
Tides and Currents Weather Stations Pressure Air Temp Water Temp Dewpoint Dewpoint Depression Visibility Wind Speed Wind Dir Waves Ship Positions

Hertfordshire

Last reported at 2015-May-29 19:33 UTC. Time now 2015-May-29 20:15 UTC.
Position N 53°38' E 000°29'.

Length 83 m; draft 4.8 m.

Type: Cargo ship. MMSI: 236563000.

Date/timePositionNaut miles runAvg speedWind from/ knotsBaromVisibWave heightAir tempDewpointWater temp
2015-May-29 19:33N 53°38' E 000°29'40 9.2
2015-May-29 15:10N 53°04' E 001°04'5 7.9
2015-May-29 14:33N 53°01' E 001°11'8 8.1
2015-May-29 13:33N 52°57' E 001°22'1010.1
2015-May-29 12:33N 52°50' E 001°35'1111.3
2015-May-29 11:33N 52°42' E 001°48'1111.4
2015-May-29 10:33N 52°34' E 002°01'61 9.6
2015-May-29 04:13N 51°48' E 003°08'6 9.6
2015-May-29 03:33N 51°44' E 003°15'10 9.6
2015-May-29 02:33N 51°36' E 003°23'1010.5
2015-May-29 01:34N 51°27' E 003°32'7 7.4
2015-May-29 00:33N 51°24' E 003°43'5 5.3
2015-May-28 23:33N 51°20' E 003°49'4 3.7
2015-May-28 22:31N 51°16' E 003°51'0 0.0
2015-May-28 20:15N 51°16' E 003°51'0 0.0
2015-May-28 19:33N 51°16' E 003°51'0 0.0
2015-May-28 18:33N 51°16' E 003°51'0 0.0
2015-May-28 17:09N 51°16' E 003°51'0 0.0
2015-May-28 16:27N 51°16' E 003°51'0 0.0
2015-May-28 15:20N 51°16' E 003°51'0 0.0
2015-May-28 14:08N 51°16' E 003°51'0 0.0
2015-May-28 12:29N 51°16' E 003°51'0 0.0
2015-May-28 10:27N 51°16' E 003°51'0 0.0
2015-May-28 07:28N 51°16' E 003°51'2 1.9
2015-May-28 06:34N 51°18' E 003°50'1 1.0
2015-May-28 05:25N 51°19' E 003°49'0 0.0
2015-May-28 04:28N 51°19' E 003°49'0 0.0
2015-May-28 03:28N 51°19' E 003°49'0 0.0
2015-May-28 02:31N 51°19' E 003°49'0 0.0
2015-May-28 01:31N 51°19' E 003°49'0 0.0
2015-May-28 00:29N 51°19' E 003°49'0 0.0
2015-May-27 23:28N 51°19' E 003°49'0 0.0
2015-May-27 22:28N 51°19' E 003°49'0 0.0
2015-May-27 21:31N 51°19' E 003°49'0 0.0
2015-May-27 20:19N 51°19' E 003°49'0 0.0
2015-May-27 19:31N 51°19' E 003°49'0 0.0
2015-May-27 18:31N 51°19' E 003°49'0 0.0
2015-May-27 17:25N 51°19' E 003°49'0 0.0
2015-May-27 16:33N 51°19' E 003°49'1 1.4
2015-May-27 15:33N 51°20' E 003°49'5 4.9
2015-May-27 14:33N 51°23' E 003°42'9 9.5
2015-May-27 13:34N 51°29' E 003°30'78 8.5
2015-May-27 04:26N 52°28' E 002°07'1112.0
2015-May-27 03:33N 52°37' E 002°01'1212.0
2015-May-27 02:34N 52°46' E 001°48'1212.3
2015-May-27 01:34N 52°53' E 001°31'1212.2
2015-May-27 00:34N 52°59' E 001°14'3611.0
2015-May-26 21:17N 53°24' E 000°29'811.0
2015-May-26 20:33N 53°30' E 000°20'10 9.8
2015-May-26 19:34N 53°34' E 000°05'1010.3
2015-May-26 18:33N 53°38' W 000°11'1 0.6
2015-May-26 17:32N 53°38' W 000°11'0 0.0
2015-May-26 16:32N 53°38' W 000°11'0 0.0
2015-May-26 15:32N 53°38' W 000°11'0 0.0
2015-May-26 14:32N 53°38' W 000°11'0 0.0
2015-May-26 13:29N 53°38' W 000°11'0 0.0
2015-May-26 12:32N 53°38' W 000°11'0 0.0
2015-May-26 11:32N 53°38' W 000°11'0 0.0
2015-May-26 10:32N 53°38' W 000°11'0 0.0
2015-May-26 09:32N 53°38' W 000°11'0 0.0
2015-May-26 08:32N 53°38' W 000°11'0 0.0
2015-May-26 07:32N 53°38' W 000°11'0 0.0
2015-May-26 06:32N 53°38' W 000°11'0 0.0
2015-May-26 05:32N 53°38' W 000°11'0 0.0
2015-May-26 04:32N 53°38' W 000°11'0 0.0
2015-May-26 03:32N 53°38' W 000°11'0 0.0
2015-May-26 02:32N 53°38' W 000°11'0 0.0
2015-May-26 01:31N 53°38' W 000°11'0 0.0
2015-May-26 00:32N 53°38' W 000°11'0 0.0
2015-May-25 23:32N 53°38' W 000°11'0 0.0
2015-May-25 22:31N 53°38' W 000°11'0 0.0
2015-May-25 21:34N 53°38' W 000°11'1 0.8
2015-May-25 20:33N 53°38' W 000°11'1010.0
2015-May-25 19:33N 53°34' E 000°05'9 8.9
2015-May-25 18:33N 53°31' E 000°19'6 5.9
2015-May-25 17:33N 53°28' E 000°27'34 6.7
2015-May-25 12:30N 53°03' E 001°06'7 7.6
2015-May-25 11:33N 52°59' E 001°16'7 7.5
2015-May-25 10:33N 52°55' E 001°26'8 8.4
2015-May-25 09:33N 52°50' E 001°37'10 9.8
2015-May-25 08:33N 52°42' E 001°47'1111.0
2015-May-25 07:33N 52°33' E 001°57'1210.8
2015-May-25 06:29N 52°23' E 002°07'40 9.5
2015-May-25 02:20N 51°51' E 002°45'8 9.6
2015-May-25 01:32N 51°47' E 002°56'1010.0
2015-May-25 00:30N 51°44' E 003°12'8 8.2
2015-May-24 23:33N 51°38' E 003°20'10 9.9
2015-May-24 22:33N 51°30' E 003°28'10 9.9
2015-May-24 21:33N 51°25' E 003°42'9 8.7
2015-May-24 20:33N 51°27' E 003°56'10 9.7
2015-May-24 19:33N 51°23' E 004°10'5 4.9
2015-May-24 18:33N 51°21' E 004°17'0 0.0
2015-May-24 17:31N 51°21' E 004°17'1 0.9
2015-May-24 16:33N 51°22' E 004°17'0 0.0
2015-May-24 15:33N 51°22' E 004°17'0 0.0
2015-May-24 14:30N 51°22' E 004°17'0 0.0
2015-May-24 13:33N 51°22' E 004°17'0 0.0
2015-May-24 12:30N 51°22' E 004°17'0 0.0
2015-May-24 09:26N 51°22' E 004°17'0 0.0
2015-May-24 08:26N 51°22' E 004°17'0 0.0
2015-May-24 07:26N 51°22' E 004°17'0 0.0
2015-May-24 06:17N 51°22' E 004°17'0 0.0
2015-May-24 05:29N 51°22' E 004°17'0 0.1
2015-May-24 04:21N 51°22' E 004°17'0 0.4
2015-May-24 03:23N 51°21' E 004°17'0 0.0
2015-May-24 02:32N 51°21' E 004°17'0 0.0
2015-May-24 01:32N 51°21' E 004°17'0 0.0
2015-May-24 00:29N 51°21' E 004°17'0 0.0
2015-May-23 23:26N 51°21' E 004°18'0 0.0
2015-May-23 22:32N 51°21' E 004°17'1 0.6
2015-May-23 21:25N 51°21' E 004°17'0 0.4
2015-May-23 20:33N 51°21' E 004°16'7 6.8
2015-May-23 19:34N 51°22' E 004°06'6 5.6
2015-May-23 18:34N 51°23' E 003°57'9 8.5
2015-May-23 17:34N 51°23' E 003°44'1010.2
2015-May-23 16:33N 51°29' E 003°30'1010.3
2015-May-23 15:33N 51°37' E 003°22'1010.1
2015-May-23 14:33N 51°45' E 003°11'14 9.9
2015-May-23 13:06N 51°50' E 002°50'610.6
2015-May-23 12:33N 51°55' E 002°44'1410.8
2015-May-23 11:16N 52°06' E 002°31'810.9
2015-May-23 10:30N 52°12' E 002°22'1111.0
2015-May-23 09:29N 52°21' E 002°12'1010.5
2015-May-23 08:34N 52°29' E 002°02'10 9.7
2015-May-23 07:34N 52°37' E 001°52'9 8.8
2015-May-23 06:33N 52°45' E 001°47'8 8.1
2015-May-23 05:33N 52°51' E 001°38'8 8.1
2015-May-23 04:33N 52°55' E 001°27'8 8.4
2015-May-23 03:33N 52°59' E 001°14'40 9.2
2015-May-22 23:10N 53°31' E 000°33'610.2
2015-May-22 22:33N 53°37' E 000°30'1110.7
2015-May-22 21:33N 53°46' E 000°21'1111.4
2015-May-22 20:34N 53°57' E 000°12'1212.2
2015-May-22 19:33N 54°07' E 000°03'1312.6
2015-May-22 18:34N 54°17' W 000°11'1212.5
2015-May-22 17:33N 54°27' W 000°24'1212.0
2015-May-22 16:33N 54°37' W 000°37'1111.0
2015-May-22 15:31N 54°45' W 000°49'1010.7
2015-May-22 14:34N 54°53' W 001°00'1010.3
2015-May-22 13:33N 55°02' W 001°11'  
2015-May-20 07:33N 55°06' W 001°16'10 9.1
2015-May-20 06:27N 54°57' W 001°08'8 8.9
2015-May-20 05:34N 54°51' W 000°59'8 8.4
2015-May-20 04:33N 54°45' W 000°50'8 8.2
2015-May-20 03:33N 54°38' W 000°40'8 8.3
2015-May-20 02:33N 54°32' W 000°31'9 8.9
2015-May-20 01:33N 54°25' W 000°22'10 9.7
2015-May-20 00:33N 54°18' W 000°12'1110.9
2015-May-19 23:33N 54°09' E 000°00'1111.3
2015-May-19 22:33N 53°60' E 000°10'1111.1
2015-May-19 21:34N 53°50' E 000°19'1110.9
2015-May-19 20:33N 53°40' E 000°28'  

Dump ship's entire track history